Terminal Aerodrome Forecast
Issued by NWS Charleston, WV

Current Version | Previous Version | Graphics & Text | Print | Product List | Glossary On
Versions: 1 2 3 4 5 6 7 8 9 10 11 12 13 14 15 16 17 18 19 20 21 22 23 24 25 26 27 28 29 30
004
FTUS41 KRLX 210555 CCA
TAFBKW
TAF COR
KBKW 210555Z 2106/2206 00000KT 3SM BR SKC
      TEMPO 2106/2107 1SM BR
     FM210700 00000KT 1/2SM FG SCT001
     FM211400 01003KT P6SM SCT025
     FM211800 03003KT P6SM VCSH SCT040
     FM212200 09003KT P6SM SCT040=

USA.gov is the U.S. government's official web portal to all federal, state and local government web resources and services.